This is the latest recevied weather packets stored in our database for station/object EA5JPW-10. If no packets are shown the sender has not sent any weather packets the latest 10 day(s).
| Time | Temp. | Humidity | Pressure | Rain* | Wind** | Luminosity | Snow |
|---|---|---|---|---|---|---|---|
| 1777371538 | 20.56° C | 42% | 992.2 hPa | - | - | - | - |
| 1777370637 | 20.56° C | 42% | 992.6 hPa | - | - | - | - |
| 1777370388 | 20° C | 42% | 993.4 hPa | - | - | - | - |
| 1777369737 | 20° C | 42% | 993.4 hPa | - | - | - | - |
| 1777368837 | 18.89° C | 42% | 992.2 hPa | - | - | - | - |
| 1777367937 | 18.89° C | 43% | 993.4 hPa | - | - | - | - |
| 1777367037 | 18.33° C | 43% | 992.9 hPa | - | - | - | - |
| 1777366137 | 17.78° C | 44% | 993 hPa | - | - | - | - |
| 1777365236 | 18.33° C | 43% | 992.9 hPa | - | - | - | - |
| 1777364336 | 18.33° C | 43% | 992.9 hPa | - | - | - | - |
| 1777363435 | 18.89° C | 43% | 992.6 hPa | - | - | - | - |
| 1777362541 | 18.89° C | 43% | 992.5 hPa | - | - | - | - |
| 1777361641 | 18.33° C | 43% | 992.4 hPa | - | - | - | - |
| 1777360740 | 17.78° C | 43% | 992.7 hPa | - | - | - | - |
| 1777359840 | 16.67° C | 43% | 992.9 hPa | - | - | - | - |
| 1777358940 | 15.56° C | 43% | 993 hPa | - | - | - | - |
| 1777358040 | 15.56° C | 43% | 993.5 hPa | - | - | - | - |
| 1777357139 | 15° C | 43% | 994 hPa | - | - | - | - |
| 1777356238 | 13.89° C | 44% | 993.8 hPa | - | - | - | - |
| 1777355338 | 13.33° C | 44% | 993.5 hPa | - | - | - | - |
| 1777354437 | 11.67° C | 44% | 991.2 hPa | - | - | - | - |
| 1777353537 | 13.33° C | 44% | 992.8 hPa | - | - | - | - |
| 1777352637 | 12.78° C | 44% | 992.6 hPa | - | - | - | - |
| 1777351737 | 12.78° C | 44% | 992.5 hPa | - | - | - | - |
| 1777350837 | 12.78° C | 44% | 992.3 hPa | - | - | - | - |
* Rain since midnight (hover to see other rain measurements)
** Current wind speed in m/s (hover to see current wind gust speed)